Airey, Mississippi
Current Conditions -  °F | °C
As of 11:53 AM on Monday 24 Nov 2014 (Local Time) from KGPT Reporting Station
Clear Clear  
Wind Chill: 75°   Ceiling: Unl
Heat Index: 75°   Visibility: 10mi
Dew Point: 56°   Wind: 9mph
Humidity: 51%   Direction: 330°NNW
Pressure: 29.84"   Gusts: NA
Location:  30.603°N, 89.0932°W
Report Text: KGPT 241753Z 33008KT 300V360 10SM CLR 24/13 A2984 RMK AO2 SLP103 T02390133 10239 20189 58004
Loading
Personal Weather Stations






























Interactive Weather Map New forecast layout! Learn more

10-Day Weather Forecast

Advertisements
Track Severe Weather on mobile